createdAt,value
2023-03-16T00:00:09.780Z,0.69
2023-03-16T00:02:31.251Z,0.71
2023-03-16T00:04:52.740Z,0.70
2023-03-16T00:07:14.828Z,0.73
2023-03-16T00:09:41.056Z,0.57
2023-03-16T00:12:03.302Z,0.52
2023-03-16T00:14:25.979Z,0.60
2023-03-16T00:16:47.504Z,0.59
2023-03-16T00:19:08.981Z,0.55
2023-03-16T00:21:32.121Z,0.45
2023-03-16T00:23:53.619Z,0.53
2023-03-16T00:26:15.124Z,0.44
2023-03-16T00:28:36.973Z,0.28
2023-03-16T00:30:59.271Z,0.26
2023-03-16T00:33:20.858Z,0.40
2023-03-16T00:35:49.997Z,0.42
2023-03-16T00:38:11.911Z,0.37
2023-03-16T00:40:33.954Z,0.19
2023-03-16T00:42:55.683Z,0.19
2023-03-16T00:45:17.221Z,0.28
2023-03-16T00:47:38.720Z,0.38
2023-03-16T00:50:01.267Z,0.25
2023-03-16T00:52:23.624Z,0.31
2023-03-16T00:54:47.060Z,0.19
2023-03-16T00:57:09.301Z,0.13
2023-03-16T00:59:31.311Z,0.20
2023-03-16T01:01:53.885Z,-0.05
2023-03-16T01:04:15.416Z,-0.13
2023-03-16T01:06:38.822Z,0.05
2023-03-16T01:09:02.692Z,0.10
2023-03-16T01:11:24.237Z,0.15
2023-03-16T01:13:47.352Z,0.20
2023-03-16T01:16:09.965Z,0.15
2023-03-16T01:18:34.812Z,0.21
2023-03-16T01:20:56.294Z,0.23
2023-03-16T01:23:18.386Z,0.24
2023-03-16T01:25:41.276Z,0.31
2023-03-16T01:28:03.645Z,0.31
2023-03-16T01:30:25.521Z,0.24
2023-03-16T01:32:47.334Z,0.15
2023-03-16T01:35:09.358Z,0.15
2023-03-16T01:37:31.711Z,0.00
2023-03-16T01:39:53.242Z,-0.20
2023-03-16T01:42:14.812Z,-0.13
2023-03-16T01:44:56.647Z,-0.05
2023-03-16T01:47:18.506Z,-0.02
2023-03-16T01:49:40.033Z,-0.01
2023-03-16T01:52:07.416Z,-0.02
2023-03-16T01:54:48.445Z,0.02
2023-03-16T01:57:21.996Z,0.03
2023-03-16T01:59:50.559Z,-0.18
2023-03-16T02:02:15.468Z,-0.16
2023-03-16T02:04:51.126Z,-0.07
2023-03-16T02:07:13.223Z,-0.07
2023-03-16T02:09:39.074Z,-0.08
2023-03-16T02:12:01.368Z,-0.21
2023-03-16T02:14:24.907Z,-0.10
2023-03-16T02:16:47.574Z,-0.23
2023-03-16T02:19:16.192Z,-0.15
2023-03-16T02:21:45.643Z,-0.19
2023-03-16T02:24:07.335Z,-0.28
2023-03-16T02:26:51.497Z,-0.20
2023-03-16T02:29:48.981Z,-0.14
2023-03-16T02:32:11.854Z,-0.14
2023-03-16T02:34:33.417Z,-0.14
2023-03-16T02:36:57.007Z,-0.21
2023-03-16T02:39:18.888Z,-0.29
2023-03-16T02:41:41.811Z,-0.20
2023-03-16T02:44:26.502Z,-0.19
2023-03-16T02:46:48.480Z,-0.18
2023-03-16T02:49:31.876Z,-0.44
2023-03-16T02:51:53.659Z,-0.39
2023-03-16T02:54:15.156Z,-0.47
2023-03-16T02:56:36.702Z,-0.51
2023-03-16T02:58:58.247Z,-0.48
2023-03-16T03:01:19.784Z,-0.46
2023-03-16T03:03:41.255Z,-0.39
2023-03-16T03:06:02.788Z,-0.39
2023-03-16T03:08:24.322Z,-0.40
2023-03-16T03:10:46.252Z,-0.33
2023-03-16T03:13:07.818Z,-0.36
2023-03-16T03:15:29.330Z,-0.48
2023-03-16T03:17:50.825Z,-0.53
2023-03-16T03:20:19.958Z,-0.52
2023-03-16T03:22:42.023Z,-0.50
2023-03-16T03:25:03.506Z,-0.63
2023-03-16T03:27:25.041Z,-0.66
2023-03-16T03:29:46.569Z,-0.55
2023-03-16T03:32:08.365Z,-0.43
2023-03-16T03:34:31.367Z,-0.39
2023-03-16T03:36:53.684Z,-0.46
2023-03-16T03:39:15.139Z,-0.50
2023-03-16T03:41:36.794Z,-0.51
2023-03-16T03:43:59.901Z,-0.54
2023-03-16T03:46:21.553Z,-0.48
2023-03-16T03:48:43.069Z,-0.59
2023-03-16T03:51:05.680Z,-0.64
2023-03-16T03:53:27.129Z,-0.89
2023-03-16T03:55:49.938Z,-0.74
2023-03-16T03:58:12.201Z,-0.94
2023-03-16T04:00:34.009Z,-0.82
2023-03-16T04:02:55.616Z,-0.70
2023-03-16T04:05:17.307Z,-0.65
2023-03-16T04:07:39.144Z,-0.75
2023-03-16T04:10:01.078Z,-0.76
2023-03-16T04:12:23.170Z,-0.73
2023-03-16T04:14:44.746Z,-0.68
2023-03-16T04:17:06.172Z,-0.60
2023-03-16T04:19:28.615Z,-0.55
2023-03-16T04:21:50.586Z,-0.52
2023-03-16T04:24:14.790Z,-0.54
2023-03-16T04:26:36.326Z,-0.53
2023-03-16T04:28:58.633Z,-0.62
2023-03-16T04:31:20.206Z,-0.72
2023-03-16T04:33:42.352Z,-0.51
2023-03-16T04:36:05.668Z,-0.72
2023-03-16T04:38:27.111Z,-0.58
2023-03-16T04:40:48.508Z,-0.64
2023-03-16T04:43:09.930Z,-0.68
2023-03-16T04:45:32.886Z,-0.69
2023-03-16T04:47:54.313Z,-0.60
2023-03-16T04:50:15.941Z,-0.62
2023-03-16T04:52:37.837Z,-0.72
2023-03-16T04:54:59.286Z,-0.73
2023-03-16T04:57:20.813Z,-0.65
2023-03-16T04:59:42.353Z,-0.56
2023-03-16T05:02:04.122Z,-0.69
2023-03-16T05:04:25.558Z,-0.59
2023-03-16T05:06:47.070Z,-0.58
2023-03-16T05:09:08.933Z,-0.56
2023-03-16T05:11:30.696Z,-0.52
2023-03-16T05:13:52.285Z,-0.56
2023-03-16T05:16:13.825Z,-0.56
2023-03-16T05:18:35.368Z,-0.75
2023-03-16T05:20:56.896Z,-0.66
2023-03-16T05:23:18.334Z,-0.94
2023-03-16T05:25:40.456Z,-1.09
2023-03-16T05:28:02.100Z,-1.18
2023-03-16T05:30:23.644Z,-1.12
2023-03-16T05:32:45.812Z,-1.39
2023-03-16T05:35:07.627Z,-1.15
2023-03-16T05:37:29.823Z,-1.09
2023-03-16T05:39:51.252Z,-0.88
2023-03-16T05:42:12.714Z,-1.16
2023-03-16T05:44:34.414Z,-1.07
2023-03-16T05:46:56.058Z,-0.90
2023-03-16T05:49:17.805Z,-0.82
2023-03-16T05:51:39.270Z,-0.81
2023-03-16T05:54:00.729Z,-0.74
2023-03-16T05:56:24.808Z,-0.67
2023-03-16T05:58:46.358Z,-0.62
2023-03-16T06:01:09.577Z,-0.42
2023-03-16T06:03:31.451Z,-0.49
2023-03-16T06:05:53.511Z,-0.42
2023-03-16T06:08:15.502Z,-0.46
2023-03-16T06:10:36.993Z,-0.38
2023-03-16T06:12:59.905Z,-0.50
2023-03-16T06:15:25.076Z,-0.54
2023-03-16T06:17:46.616Z,-0.44
2023-03-16T06:20:11.389Z,-0.39
2023-03-16T06:22:33.000Z,-0.56
2023-03-16T06:24:54.453Z,-0.39
2023-03-16T06:27:15.872Z,-0.34
2023-03-16T06:29:37.438Z,-0.16
2023-03-16T06:31:58.903Z,-0.05
2023-03-16T06:34:20.916Z,-0.15
2023-03-16T06:36:42.344Z,0.09
2023-03-16T06:39:04.540Z,-0.02
2023-03-16T06:41:26.052Z,0.04
2023-03-16T06:43:47.510Z,0.20
2023-03-16T06:46:09.307Z,0.10
2023-03-16T06:48:31.307Z,0.16
2023-03-16T06:50:52.899Z,0.21
2023-03-16T06:53:14.512Z,0.24
2023-03-16T06:55:35.996Z,0.26
2023-03-16T06:57:57.441Z,0.31
2023-03-16T07:00:19.424Z,0.22
2023-03-16T07:02:42.556Z,0.20
2023-03-16T07:05:04.301Z,0.32
2023-03-16T07:07:27.277Z,0.49
2023-03-16T07:09:49.175Z,0.49
2023-03-16T07:12:10.885Z,0.59
2023-03-16T07:14:32.325Z,0.46
2023-03-16T07:16:53.910Z,0.59
2023-03-16T07:19:15.429Z,0.70
2023-03-16T07:21:40.754Z,0.86
2023-03-16T07:24:02.240Z,0.96
2023-03-16T07:26:23.682Z,0.89
2023-03-16T07:28:45.101Z,0.86
2023-03-16T07:31:07.357Z,0.78
2023-03-16T07:33:28.783Z,1.04
2023-03-16T07:35:50.254Z,1.05
2023-03-16T07:38:12.291Z,1.10
2023-03-16T07:40:34.805Z,1.23
2023-03-16T07:42:56.497Z,1.33
2023-03-16T07:45:18.192Z,1.67
2023-03-16T07:47:39.649Z,1.74
2023-03-16T07:50:01.429Z,1.93
2023-03-16T07:52:24.090Z,1.98
2023-03-16T07:54:45.579Z,2.29
2023-03-16T07:57:07.778Z,2.26
2023-03-16T07:59:29.357Z,2.40
2023-03-16T08:01:50.803Z,2.27
2023-03-16T08:04:12.597Z,2.50
2023-03-16T08:06:34.020Z,2.80
2023-03-16T08:08:55.534Z,2.79
2023-03-16T08:11:23.639Z,2.87
2023-03-16T08:13:46.965Z,2.92
2023-03-16T08:16:10.629Z,3.02
2023-03-16T08:18:32.262Z,3.06
2023-03-16T08:20:54.868Z,3.19
2023-03-16T08:23:17.291Z,3.19
2023-03-16T08:25:38.804Z,3.20
2023-03-16T08:28:00.258Z,3.25
2023-03-16T08:30:22.831Z,3.37
2023-03-16T08:32:44.507Z,3.29
2023-03-16T08:35:08.333Z,3.35
2023-03-16T08:37:29.782Z,3.33
2023-03-16T08:39:51.599Z,3.36
2023-03-16T08:42:15.266Z,3.51
2023-03-16T08:44:37.228Z,3.45
2023-03-16T08:47:01.578Z,3.54
2023-03-16T08:49:24.069Z,3.71
2023-03-16T08:51:46.546Z,3.72
2023-03-16T08:54:08.012Z,3.91
2023-03-16T08:56:30.535Z,3.71
2023-03-16T08:58:52.193Z,3.69
2023-03-16T09:01:17.453Z,3.98
2023-03-16T09:03:40.674Z,4.02
2023-03-16T09:06:04.909Z,3.94
2023-03-16T09:08:26.386Z,3.94
2023-03-16T09:10:47.831Z,3.85
2023-03-16T09:13:09.244Z,4.04
2023-03-16T09:15:31.525Z,3.92
2023-03-16T09:17:54.375Z,4.03
2023-03-16T09:20:22.655Z,4.10
2023-03-16T09:22:48.181Z,4.27
2023-03-16T09:25:11.291Z,4.44
2023-03-16T09:27:33.907Z,4.42
2023-03-16T09:29:56.540Z,4.32
2023-03-16T09:32:18.345Z,4.55
2023-03-16T09:34:40.281Z,4.59
2023-03-16T09:37:02.576Z,4.43
2023-03-16T09:39:24.084Z,4.48
2023-03-16T09:41:53.974Z,4.59
2023-03-16T09:44:22.675Z,4.70
2023-03-16T09:46:46.363Z,4.53
2023-03-16T09:49:10.874Z,4.55
2023-03-16T09:51:38.581Z,4.76
2023-03-16T09:54:03.058Z,4.76
2023-03-16T09:56:33.856Z,4.94
2023-03-16T09:58:56.139Z,4.97
2023-03-16T10:01:50.299Z,5.03
2023-03-16T10:05:03.144Z,5.27
2023-03-16T10:07:50.056Z,5.02
2023-03-16T10:10:11.468Z,4.96
2023-03-16T10:12:41.521Z,5.22
2023-03-16T10:15:08.492Z,5.18
2023-03-16T10:17:38.814Z,5.23
2023-03-16T10:20:08.961Z,5.31
2023-03-16T10:22:33.613Z,5.35
2023-03-16T10:25:01.460Z,5.43
2023-03-16T10:27:29.694Z,5.34
2023-03-16T10:29:51.331Z,5.41
2023-03-16T10:32:16.998Z,5.37
2023-03-16T10:34:38.541Z,5.45
2023-03-16T10:37:02.924Z,5.59
2023-03-16T10:39:24.410Z,5.54
2023-03-16T10:41:56.105Z,5.59
2023-03-16T10:44:24.622Z,5.72
2023-03-16T10:46:58.263Z,5.78
2023-03-16T10:49:49.056Z,5.84
2023-03-16T10:52:23.950Z,6.07
2023-03-16T10:54:55.123Z,6.23
2023-03-16T10:57:22.689Z,6.29
2023-03-16T10:59:49.709Z,6.52
2023-03-16T11:02:20.749Z,6.69
2023-03-16T11:04:42.733Z,6.75
2023-03-16T11:07:09.789Z,6.82
2023-03-16T11:09:33.760Z,6.91
2023-03-16T11:11:55.461Z,6.93
2023-03-16T11:14:21.056Z,6.90
2023-03-16T11:16:52.041Z,7.05
2023-03-16T11:19:34.667Z,7.30
2023-03-16T11:22:06.469Z,7.40
2023-03-16T11:24:59.323Z,7.64
2023-03-16T11:27:25.148Z,7.69
2023-03-16T11:30:05.399Z,7.92
2023-03-16T11:32:33.325Z,7.83
2023-03-16T11:34:54.848Z,7.94
2023-03-16T11:37:28.593Z,7.92
2023-03-16T11:40:15.179Z,8.05
2023-03-16T11:42:44.065Z,8.08
2023-03-16T11:45:20.539Z,8.22
2023-03-16T11:47:54.068Z,8.54
2023-03-16T11:50:25.478Z,8.64
2023-03-16T11:53:17.364Z,8.44
2023-03-16T11:56:08.037Z,8.52
2023-03-16T11:58:57.273Z,8.40
2023-03-16T12:01:43.074Z,8.16
2023-03-16T12:04:10.602Z,8.41
2023-03-16T12:06:47.019Z,8.55
2023-03-16T12:09:30.232Z,8.91
2023-03-16T12:12:23.835Z,8.74
2023-03-16T12:14:55.356Z,8.85
2023-03-16T12:17:23.263Z,9.30
2023-03-16T12:19:54.076Z,9.10
2023-03-16T12:22:24.289Z,9.07
2023-03-16T12:24:47.135Z,8.99
2023-03-16T12:27:15.881Z,8.93
2023-03-16T12:30:02.516Z,9.23
2023-03-16T12:32:38.452Z,9.23
2023-03-16T12:35:34.000Z,9.19
2023-03-16T12:38:20.866Z,9.33
2023-03-16T12:40:55.753Z,9.46
2023-03-16T12:43:37.176Z,9.86
2023-03-16T12:46:12.542Z,9.98
2023-03-16T12:48:40.237Z,10.18
2023-03-16T12:51:05.059Z,10.45
2023-03-16T12:53:48.385Z,10.80
2023-03-16T12:56:13.382Z,10.73
2023-03-16T12:58:34.931Z,11.20
2023-03-16T13:00:59.571Z,11.47
2023-03-16T13:03:23.164Z,11.72
2023-03-16T13:05:49.849Z,11.54
2023-03-16T13:08:15.872Z,11.56
2023-03-16T13:10:38.756Z,11.73
2023-03-16T13:13:25.527Z,11.70
2023-03-16T13:15:47.618Z,11.78
2023-03-16T13:18:09.099Z,11.80
2023-03-16T13:20:34.029Z,12.24
2023-03-16T13:23:18.367Z,12.56
2023-03-16T13:26:03.234Z,12.75
2023-03-16T13:28:29.964Z,12.82
2023-03-16T13:30:51.491Z,12.68
2023-03-16T13:33:20.781Z,13.08
2023-03-16T13:35:42.296Z,13.20
2023-03-16T13:38:08.059Z,12.94
2023-03-16T13:40:29.744Z,13.44
2023-03-16T13:42:53.248Z,13.62
2023-03-16T13:45:19.362Z,13.57
2023-03-16T13:47:45.336Z,13.73
2023-03-16T13:50:11.792Z,13.84
2023-03-16T13:52:35.260Z,13.83
2023-03-16T13:55:02.030Z,13.71
2023-03-16T13:57:27.108Z,14.11
2023-03-16T13:59:48.746Z,13.96
2023-03-16T14:02:17.910Z,13.47
2023-03-16T14:04:39.400Z,13.41
2023-03-16T14:07:03.750Z,13.47
2023-03-16T14:09:28.746Z,13.60
2023-03-16T14:11:50.316Z,13.24
2023-03-16T14:14:17.148Z,13.10
2023-03-16T14:16:38.697Z,13.14
2023-03-16T14:19:08.155Z,13.53
2023-03-16T14:21:31.909Z,13.45
2023-03-16T14:24:07.797Z,13.58
2023-03-16T14:26:43.338Z,13.95
2023-03-16T14:29:25.051Z,14.07
2023-03-16T14:31:46.521Z,13.80
2023-03-16T14:34:29.468Z,13.77
2023-03-16T14:36:51.219Z,13.76
2023-03-16T14:39:16.846Z,13.73
2023-03-16T14:41:39.909Z,13.97
2023-03-16T14:44:03.059Z,14.34
2023-03-16T14:46:31.002Z,13.84
2023-03-16T14:48:52.475Z,13.60
2023-03-16T14:51:15.082Z,13.84
2023-03-16T14:53:37.248Z,13.73
2023-03-16T14:55:59.467Z,13.46
2023-03-16T14:58:21.374Z,13.65
2023-03-16T15:00:52.637Z,13.23
2023-03-16T15:03:17.447Z,13.44
2023-03-16T15:05:41.856Z,14.24
2023-03-16T15:08:05.805Z,14.25
2023-03-16T15:10:35.320Z,13.85
2023-03-16T15:13:06.040Z,13.47
2023-03-16T15:15:28.650Z,13.31
2023-03-16T15:17:52.162Z,13.28
2023-03-16T15:20:15.652Z,12.85
2023-03-16T15:22:39.181Z,12.85
2023-03-16T15:25:18.077Z,13.16
2023-03-16T15:27:39.563Z,13.33
2023-03-16T15:30:01.907Z,13.57
2023-03-16T15:32:23.632Z,13.36
2023-03-16T15:34:46.665Z,13.16
2023-03-16T15:37:17.238Z,13.05
2023-03-16T15:39:38.747Z,13.15
2023-03-16T15:42:00.495Z,13.24
2023-03-16T15:44:22.855Z,12.98
2023-03-16T15:46:44.504Z,13.14
2023-03-16T15:49:06.512Z,13.00
2023-03-16T15:51:30.459Z,12.97
2023-03-16T15:53:57.773Z,12.66
2023-03-16T15:56:29.228Z,12.70
2023-03-16T15:58:50.978Z,12.36
2023-03-16T16:01:25.454Z,11.97
2023-03-16T16:03:47.247Z,11.79
2023-03-16T16:06:17.419Z,11.74
2023-03-16T16:08:38.859Z,11.82
2023-03-16T16:11:00.385Z,11.91
2023-03-16T16:13:43.537Z,11.85
2023-03-16T16:16:06.777Z,11.14
2023-03-16T16:18:31.948Z,11.20
2023-03-16T16:20:53.989Z,11.32
2023-03-16T16:23:15.488Z,11.42
2023-03-16T16:25:41.363Z,11.44
2023-03-16T16:28:03.074Z,11.29
2023-03-16T16:30:31.367Z,11.25
2023-03-16T16:32:53.387Z,11.30
2023-03-16T16:35:17.463Z,11.35
2023-03-16T16:37:38.992Z,11.17
2023-03-16T16:40:00.501Z,11.16
2023-03-16T16:42:22.031Z,11.08
2023-03-16T16:44:44.156Z,10.80
2023-03-16T16:47:18.458Z,10.94
2023-03-16T16:49:40.162Z,10.63
2023-03-16T16:52:02.262Z,10.73
2023-03-16T16:54:26.189Z,10.85
2023-03-16T16:56:50.069Z,10.88
2023-03-16T16:59:24.756Z,10.89
2023-03-16T17:01:48.160Z,10.95
2023-03-16T17:04:15.162Z,10.89
2023-03-16T17:06:36.865Z,10.59
2023-03-16T17:08:58.342Z,10.55
2023-03-16T17:11:23.917Z,10.40
2023-03-16T17:13:46.965Z,10.13
2023-03-16T17:16:16.700Z,9.99
2023-03-16T17:18:39.127Z,9.99
2023-03-16T17:21:00.632Z,9.89
2023-03-16T17:23:34.506Z,9.77
2023-03-16T17:25:58.619Z,9.79
2023-03-16T17:28:20.485Z,9.54
2023-03-16T17:30:42.687Z,9.60
2023-03-16T17:33:13.232Z,9.28
2023-03-16T17:35:34.844Z,9.10
2023-03-16T17:37:56.882Z,8.91
2023-03-16T17:40:25.437Z,9.09
2023-03-16T17:42:48.324Z,8.97
2023-03-16T17:45:17.794Z,8.81
2023-03-16T17:47:39.666Z,8.52
2023-03-16T17:50:01.380Z,8.46
2023-03-16T17:52:25.784Z,8.60
2023-03-16T17:54:48.572Z,8.51
2023-03-16T17:57:17.163Z,8.40
2023-03-16T17:59:38.789Z,8.31
2023-03-16T18:02:00.507Z,8.43
2023-03-16T18:04:24.587Z,8.30
2023-03-16T18:06:47.511Z,8.28
2023-03-16T18:09:09.704Z,8.19
2023-03-16T18:11:35.593Z,8.13
2023-03-16T18:13:57.374Z,8.14
2023-03-16T18:16:23.366Z,8.09
2023-03-16T18:18:44.890Z,8.16
2023-03-16T18:21:06.408Z,7.98
2023-03-16T18:23:30.539Z,8.10
2023-03-16T18:25:54.749Z,8.01
2023-03-16T18:28:17.266Z,7.99
2023-03-16T18:30:39.781Z,7.93
2023-03-16T18:33:03.054Z,7.78
2023-03-16T18:35:24.724Z,7.70
2023-03-16T18:37:46.404Z,7.66
2023-03-16T18:40:12.756Z,7.80
2023-03-16T18:42:34.237Z,7.78
2023-03-16T18:44:55.699Z,7.72
2023-03-16T18:47:20.141Z,7.66
2023-03-16T18:49:41.673Z,7.69
2023-03-16T18:52:04.312Z,7.64
2023-03-16T18:54:28.596Z,7.72
2023-03-16T18:56:50.183Z,7.83
2023-03-16T18:59:12.579Z,7.71
2023-03-16T19:01:38.711Z,7.68
2023-03-16T19:04:02.089Z,7.80
2023-03-16T19:06:30.958Z,7.45
2023-03-16T19:08:52.951Z,7.46
2023-03-16T19:11:14.932Z,7.34
2023-03-16T19:13:36.383Z,7.37
2023-03-16T19:15:58.096Z,7.24
2023-03-16T19:18:19.963Z,7.01
2023-03-16T19:20:43.773Z,7.13
2023-03-16T19:23:26.165Z,7.28
2023-03-16T19:25:48.217Z,7.07
2023-03-16T19:28:16.349Z,7.12
2023-03-16T19:30:38.545Z,7.08
2023-03-16T19:33:00.393Z,7.36
2023-03-16T19:35:33.178Z,7.23
2023-03-16T19:38:02.646Z,7.08
2023-03-16T19:40:25.469Z,7.16
2023-03-16T19:42:47.619Z,7.20
2023-03-16T19:45:23.393Z,7.10
2023-03-16T19:47:45.975Z,7.10
2023-03-16T19:50:19.254Z,7.06
2023-03-16T19:52:40.654Z,7.00
2023-03-16T19:55:02.245Z,7.24
2023-03-16T19:57:24.240Z,7.25
2023-03-16T19:59:56.944Z,7.27
2023-03-16T20:02:37.525Z,7.35
2023-03-16T20:04:58.995Z,7.34
2023-03-16T20:07:21.341Z,7.48
2023-03-16T20:09:43.215Z,7.45
2023-03-16T20:12:04.702Z,7.44
2023-03-16T20:14:33.456Z,7.34
2023-03-16T20:16:55.118Z,7.38
2023-03-16T20:19:16.668Z,7.42
2023-03-16T20:21:38.148Z,7.40
2023-03-16T20:23:59.609Z,7.31
2023-03-16T20:26:32.252Z,7.22
2023-03-16T20:28:53.841Z,7.17
2023-03-16T20:31:24.122Z,7.22
2023-03-16T20:33:46.347Z,6.97
2023-03-16T20:36:12.307Z,7.07
2023-03-16T20:38:33.837Z,6.98
2023-03-16T20:40:56.004Z,6.83
2023-03-16T20:43:25.326Z,6.91
2023-03-16T20:45:46.915Z,6.93
2023-03-16T20:48:15.700Z,6.95
2023-03-16T20:50:37.133Z,7.01
2023-03-16T20:52:58.582Z,7.05
2023-03-16T20:55:23.332Z,6.85
2023-03-16T20:57:44.864Z,6.90
2023-03-16T21:03:50.346Z,6.97
2023-03-16T21:06:23.486Z,6.90
2023-03-16T21:08:44.935Z,6.93
2023-03-16T21:11:21.815Z,7.14
2023-03-16T21:13:43.257Z,7.06
2023-03-16T21:16:05.367Z,7.01
2023-03-16T21:18:27.799Z,6.97
2023-03-16T21:20:50.614Z,6.84
2023-03-16T21:23:18.198Z,6.71
2023-03-16T21:25:44.955Z,6.86
2023-03-16T21:28:07.132Z,6.86
2023-03-16T21:30:37.636Z,6.81
2023-03-16T21:33:01.757Z,6.67
2023-03-16T21:35:33.021Z,6.74
2023-03-16T21:37:54.528Z,6.70
2023-03-16T21:40:22.130Z,6.79
2023-03-16T21:42:44.564Z,6.75
2023-03-16T21:45:06.625Z,6.80
2023-03-16T21:47:29.317Z,6.73
2023-03-16T21:49:51.242Z,6.64
2023-03-16T21:52:28.130Z,6.49
2023-03-16T21:54:50.966Z,6.57
2023-03-16T21:57:15.238Z,6.77
2023-03-16T21:59:36.948Z,6.86
2023-03-16T22:02:01.983Z,6.83
2023-03-16T22:04:23.944Z,6.96
2023-03-16T22:06:46.002Z,6.66
2023-03-16T22:09:15.411Z,6.82
2023-03-16T22:11:36.849Z,6.80
2023-03-16T22:13:59.449Z,6.87
2023-03-16T22:16:23.476Z,6.74
2023-03-16T22:18:47.123Z,6.80
2023-03-16T22:21:32.992Z,6.69
2023-03-16T22:23:56.372Z,6.67
2023-03-16T22:26:20.626Z,6.63
2023-03-16T22:28:42.637Z,6.64
2023-03-16T22:31:05.186Z,6.66
2023-03-16T22:33:29.935Z,6.59
2023-03-16T22:35:52.604Z,6.63
2023-03-16T22:38:15.023Z,6.59
2023-03-16T22:40:39.167Z,6.59
2023-03-16T22:43:04.059Z,6.69
2023-03-16T22:45:28.572Z,6.59
2023-03-16T22:47:51.054Z,6.66
2023-03-16T22:50:17.961Z,6.79
2023-03-16T22:52:39.488Z,6.84
2023-03-16T22:55:03.237Z,6.67
2023-03-16T22:57:25.037Z,6.66
2023-03-16T22:59:48.377Z,6.47
2023-03-16T23:02:18.315Z,6.66
2023-03-16T23:04:39.945Z,6.68
2023-03-16T23:07:02.145Z,6.68
2023-03-16T23:09:23.729Z,6.68
2023-03-16T23:11:47.217Z,6.80
2023-03-16T23:14:24.185Z,6.71
2023-03-16T23:16:46.713Z,6.69
2023-03-16T23:19:34.660Z,6.57
2023-03-16T23:21:59.718Z,6.74
2023-03-16T23:24:22.251Z,6.73
2023-03-16T23:26:44.369Z,6.54
2023-03-16T23:29:06.074Z,6.56
2023-03-16T23:31:27.743Z,6.60
2023-03-16T23:33:49.180Z,6.58
2023-03-16T23:36:19.680Z,6.61
2023-03-16T23:38:41.285Z,6.38
2023-03-16T23:41:02.765Z,6.41
2023-03-16T23:43:24.241Z,6.35
2023-03-16T23:45:46.803Z,6.42
2023-03-16T23:48:14.994Z,6.45
2023-03-16T23:50:37.725Z,6.36
2023-03-16T23:52:59.392Z,6.33
2023-03-16T23:55:21.426Z,6.23
2023-03-16T23:57:42.897Z,6.28
